Petros Karapetyan

Chefscout - Ararat-Armenia
9 Okt 2027
Samstag
Verarbeitung

Persönlichkeit

Anpassungsfähigkeit (16) Ehrgeiz (20) Kontroverse (4) Loyalität (6) Druck (3) Professionalität (19) Fairness (13) Temperament (11)

Profil

Trainerstil Demokratisch
Lizenz Kontinentale Pro
Entschlossenheit 4
Menschenführung 10
Motivation 3
Disziplin 7
Arbeitszufriedenheit
100%
Ermüdung
0%
Rolle Chefscout
Gehalt 46.7K p/W
Vertrag 14.03.2030

Leistung

Verhalten Gut
Trainingseffektivität
31%
Spielerentwicklung
40%
Verletzungsprävention
45%
Taktische Umsetzung
30%

Letzte Ereignisse

Spieler begutachtet jetzt
Nahm an einer Scouting-Besprechung teil 7T her
Spieler begutachtet 7T her
Spieler begutachtet 7T her
Spieler begutachtet 7T her
Spieler begutachtet 7T her
Spieler begutachtet 14T her
Spieler begutachtet 14T her

Aktuell beobachtet

133
Spieler Verein Status Fähigkeit Vertrauen Beobachtet Zuletzt beobachtet Letzte Stimme
Thiago Calone All Boys Aktiv 124 / 115 40% 5 05.10.2027 -
Genaro Rossi San Martín SJ Aktiv 112 / 113 40% 2 05.10.2027 -
Richard Celis Zamora Aktiv 112 / 99 40% 2 04.10.2027 -
Oscar Ferraresi Llaneros Aktiv 114 / 113 40% 1 04.10.2027 -
Juan David Rueda Alianza Petrolera Aktiv 112 / 105 40% 2 03.10.2027 -
Oscar Osorio Atletico Venezuela Aktiv 101 / 105 40% 3 03.10.2027 -
Marco Miori Alvarado Aktiv 122 / 113 40% 4 01.10.2027 -
Flamarion Pakhtakor Aktiv 120 / 108 40% 3 01.10.2027 -
Carlos Gugenheim Almirante Brown Aktiv 122 / 122 40% 2 29.09.2027 -
Justo Giani Belgrano Aktiv 116 / 118 40% 1 29.09.2027 -
Nicolás Sosa Racing Aktiv 119 / 115 40% 1 28.09.2027 -
Facundo Pons San Martín Aktiv 103 / 115 40% 1 28.09.2027 -
Lautaro Gordillo Colegiales Aktiv 105 / 108 40% 4 25.09.2027 -
Juan Rocca Gimnasia y Tiro Aktiv 107 / 117 40% 3 25.09.2027 -
Richard Figueroa Deportivo Lara Aktiv 98 / 94 40% 1 24.09.2027 -
Gonzalo Flores Almirante Brown Aktiv 109 / 107 40% 2 23.09.2027 -
Gianluca Pugliese Güemes Aktiv 108 / 115 40% 1 20.09.2027 -
Luca Franco Arsenal Aktiv 116 / 115 40% 1 17.09.2027 -
Edmilson Kairat Aktiv 123 / 116 40% 1 16.09.2027 -
Agustín Lavezzi Quilmes Aktiv 109 / 115 40% 5 14.09.2027 -
Enzo González Defensores Aktiv 115 / 106 40% 1 14.09.2027 -
Rubin Hebaj Tobol Aktiv 111 / 112 40% 1 13.09.2027 -
Nicolás Fernández Belgrano Aktiv 120 / 121 40% 3 12.09.2027 -
José Balza Deportivo Tachira Aktiv 105 / 107 40% 1 12.09.2027 -
Jonathan Cañete Portuguesa Aktiv 115 / 100 40% 3 10.09.2027 -
Enzo Avaro Mitre Aktiv 104 / 108 40% 1 09.09.2027 -
Renzo Reynaga Patronato Aktiv 110 / 109 40% 1 08.09.2027 -
Lisandro Cabrera Maipú Aktiv 121 / 120 40% 2 04.09.2027 -
Aziz Xolmurodov AGMK Aktiv 105 / 119 40% 1 04.09.2027 -
Alan Bonansea Colón Aktiv 114 / 120 40% 1 01.09.2027 -
Cheickna Samaké Djoliba Aktiv 121 / 110 40% 2 29.08.2027 -
Santiago Sala Güemes Aktiv 125 / 117 40% 1 29.08.2027 -
Franco Ayunta Temperley Aktiv 108 / 116 40% 1 25.08.2027 -
Facundo Castro Nueva Chicago Aktiv 110 / 119 40% 2 24.08.2027 -
Franco Fagúndez Estudiantes Aktiv 129 / 120 40% 1 24.08.2027 -
Marcos Camarda Santiago Wanderers Aktiv 98 / 107 40% 3 23.08.2027 -
Jhon Murillo America de Cali Aktiv 120 / 121 40% 3 23.08.2027 -
Michele Emmausso Cosenza Aktiv 118 / 98 40% 2 19.08.2027 -
Martín Álvarez Tristán Suárez Aktiv 105 / 102 40% 1 15.08.2027 -
Augusto Berrondo Tristán Suárez Aktiv 107 / 107 40% 1 14.08.2027 -
Andrea Mattioli Arzignano Aktiv 108 / 89 40% 1 14.08.2027 -
Ettore Gliozzi Mantova Aktiv 110 / 105 40% 3 13.08.2027 -
Mattia Iori Lumezzane Aktiv 119 / 118 40% 2 13.08.2027 -
Daniel Udoh Salford City Aktiv 110 / 114 40% 3 09.08.2027 -
Jacopo Desogus AlbinoLeffe Aktiv 114 / 119 40% 1 09.08.2027 -
Hakeeb Adelakun Doncaster Rovers Aktiv 96 / 93 40% 4 08.08.2027 -
Santiago Apa All Boys Aktiv 115 / 101 40% 1 06.08.2027 -
Rob Street Lincoln City Aktiv 99 / 123 40% 1 05.08.2027 -
Tiziano Dornell Almagro Aktiv 110 / 127 40% 2 03.08.2027 -
Felipe Fernández Virtus Entella Aktiv 95 / 93 40% 1 01.08.2027 -
Nicola Dalmonte Trento Aktiv 117 / 119 40% 2 27.07.2027 -
Giacomo Zecca Torres Aktiv 113 / 122 40% 1 25.07.2027 -
Bruno Gomes Valletta Aktiv 89 / 106 40% 5 22.07.2027 -
Rodrigo Pollero Deportivo Tachira Aktiv 98 / 104 40% 2 17.07.2027 -
Borna Knezović Casarano Aktiv 107 / 130 40% 1 16.07.2027 -
Midana Cassamá Portimonense Aktiv 101 / 122 40% 1 15.07.2027 -
Luka Reischl ADO Den Haag Aktiv 127 / 100 40% 1 13.07.2027 -
Jonathan Okoronkwo Torpedo Moscow Aktiv 98 / 92 40% 3 11.07.2027 -
Isaac Tshibangu Emirates Club Aktiv 105 / 113 40% 1 11.07.2027 -
German Onugkha Rodina Aktiv 140 / 106 40% 6 10.07.2027 -
Ilja Safronov Rotor Aktiv 96 / 112 40% 3 10.07.2027 -
Edarlyn Reyes Arsenal Tula Aktiv 120 / 102 40% 1 06.07.2027 -
Gor Matinyan Urartu Abgelehnt 100 / 105 58% 1 05.07.2027 Ablehnen
Emanuele Schimmenti Potenza Aktiv 122 / 101 40% 1 03.07.2027 -
Patrick Schmidt Tarxien Rainbows Aktiv 107 / 108 40% 2 02.07.2027 -
Jordan Larsson Al-Ettifaq Aktiv 138 / 107 40% 1 01.07.2027 -
Prince Ibara Al-Njoom Aktiv 94 / 84 40% 1 29.06.2027 -
Zaven Khudaverdyan Noah Abgelehnt 99 / 104 58% 1 21.06.2027 Ablehnen
Khariton Ayvazyan Urartu Abgelehnt 104 / 91 58% 1 03.06.2027 -
Vyacheslav Grulev Nizhniy Novgorod Aktiv 118 / 104 40% 2 30.12.2026 -
Georgy Melkadze Akhmat Grozny Aktiv 111 / 98 40% 1 28.12.2026 -
David Davidyan Rotor Aktiv 100 / 110 40% 2 27.12.2026 -
Peter Olayinka Al-Wehda Aktiv 106 / 110 40% 1 27.12.2026 -
Mikhail Ignatov Sochi Aktiv 101 / 124 40% 2 23.12.2026 -
Felipe Anderson Palmeiras Abgelehnt 123 / 127 40% 1 23.12.2026 Mehr Infos nötig
Slobodan Tedić Akron Aktiv 101 / 101 40% 2 22.12.2026 -
Georginio Wijnaldum Al-Ettifaq Aktiv 147 / 121 40% 2 22.12.2026 -
Ryder Matos Hibernians Aktiv 92 / 107 40% 2 21.12.2026 -
Sadio Mané Al-Nassr Aktiv 163 / 154 40% 1 21.12.2026 -
Dilan Ortíz Ufa Aktiv 86 / 116 40% 1 20.12.2026 -
Diamanka Senghor Mosta Aktiv 102 / 93 40% 1 19.12.2026 -
Abderrazak Hamdallah Aktiv 142 / 107 40% 1 18.12.2026 -
Pachu Kapaz Aktiv 94 / 88 40% 4 17.12.2026 -
Michael Cheek Bromley Aktiv 92 / 102 40% 2 17.12.2026 -
Bahlul Mammadov Inter Abgelehnt 121 / 124 40% 4 13.12.2026 Ablehnen
François Kamano Sochi Abgelehnt 105 / 119 40% 1 09.12.2026 Mehr Infos nötig
Chinedu Geoffrey Krylya Sovetov Aktiv 122 / 112 40% 2 02.12.2026 -
Shamil Saaduev Pobeda Aktiv 65 / 67 40% 1 01.12.2026 -
Alexandr Yushin Torpedo Moscow Aktiv 108 / 96 40% 2 29.11.2026 -
Franklin Sasere Birkirkara Aktiv 91 / 81 40% 1 28.11.2026 -
Davit Volkovi Zira Aktiv 119 / 114 40% 2 27.11.2026 -
Max Svensson Penafiel Aktiv 122 / 105 40% 2 26.11.2026 -
Denzel Jubitana Neftchi Aktiv 128 / 121 40% 2 26.11.2026 -
Tenton Yenne Baltika Aktiv 102 / 91 40% 2 24.11.2026 -
Vladimir Khubulov Dinamo Makhachkala Aktiv 93 / 120 40% 1 23.11.2026 -
Dmitry Lesnikov Volgar Aktiv 109 / 79 40% 1 22.11.2026 -
Isaac Matondo Koper Aktiv 111 / 123 40% 1 15.11.2026 -
Alex Tanque Valletta Aktiv 87 / 75 40% 2 12.11.2026 -
Oumar Camara Vitoria Guimaraes Aktiv 111 / 116 40% 1 07.11.2026 -
Uroš Đuranović Sliema Wanderers Aktiv 107 / 86 40% 2 06.11.2026 -
Kamran Aliev SKA Khabarovsk Aktiv 90 / 119 40% 1 30.10.2026 -
David Karaev KAMAZ Aktiv 93 / 105 40% 1 24.10.2026 -
Marcelo Sliema Wanderers Aktiv 69 / 100 40% 2 22.10.2026 -
Yeangel Montero Naxxar Lions Aktiv 102 / 103 40% 2 18.10.2026 -
Ryan Oné Sheffield United Aktiv 115 / 134 40% 1 17.10.2026 -
Nikos Karelis Sliema Wanderers Aktiv 100 / 104 40% 1 17.10.2026 -
Khyzyr Appaev Aktiv 106 / 91 40% 2 14.10.2026 -
Yusuf Otubanjo Nasaf Aktiv 125 / 119 40% 2 12.10.2026 -
Mats Seuntjens Groningen Aktiv 117 / 130 40% 1 11.10.2026 -
Kristian Eriksen Molde Aktiv 141 / 107 40% 3 09.10.2026 -
Steven Alfred Torpedo-BelAZ Aktiv 110 / 95 40% 1 09.10.2026 -
Marius Noubissi Pyunik Aktiv 122 / 120 40% 3 08.10.2026 -
Hansel Ochieng APS Bomet Aktiv 78 / 65 40% 1 07.10.2026 -
Patrick Otieno KCB Aktiv 74 / 61 40% 1 03.10.2026 -
Valentin Costache Noah Abgelehnt 118 / 124 40% 2 30.09.2026 -
Nyamawi Beja Bandari Aktiv 76 / 95 40% 1 30.09.2026 -
Aaron Olanare Ararat Aktiv 94 / 92 40% 1 29.09.2026 -
Momo Yansané Pyunik Aktiv 107 / 102 40% 1 25.09.2026 -
David Sakwa Bandari Aktiv 67 / 92 40% 2 23.09.2026 -
Martin Boakye Andijon Aktiv 116 / 103 40% 1 23.09.2026 -
Maxim Maximov Smorgon Aktiv 95 / 96 40% 1 22.09.2026 -
Samuel Ssenyonjo AFC Leopards Aktiv 77 / 74 40% 1 21.09.2026 -
Jáder Obrian Santa Fe Aktiv 114 / 118 40% 1 20.09.2026 -
Joel Kojo Navbahor Aktiv 102 / 105 40% 1 19.09.2026 -
Léiner Escalante Independiente Medellin Aktiv 100 / 100 40% 1 17.09.2026 -
Suleiman Abdullahi Shirak Aktiv 98 / 96 40% 1 16.09.2026 -
Magnus Lankhof Dahlby Stabaek Aktiv 86 / 97 40% 1 09.09.2026 -
Juan Cruz Zurbriggen San Telmo Aktiv 99 / 102 40% 1 05.09.2026 -
Odah Marshall Noah Aktiv 99 / 76 40% 1 05.09.2026 -
Lyova Mryan Shirak Aktiv 92 / 83 40% 1 04.09.2026 -
Malick Berté Ararat Aktiv 104 / 109 58% 1 10.08.2026 -
Lucas González Nacional Aktiv 116 / 114 40% 1 03.08.2026 -
Danny Welbeck Chelsea Aktiv 139 / 152 40% 1 01.08.2026 -